createdAt,value
2018-02-18T00:01:28.845Z,48.13
2018-02-18T00:03:57.134Z,46.57
2018-02-18T00:06:25.385Z,39.07
2018-02-18T00:08:52.894Z,43.07
2018-02-18T00:11:20.380Z,32.90
2018-02-18T00:13:48.565Z,43.00
2018-02-18T00:16:16.053Z,39.47
2018-02-18T00:18:44.346Z,34.90
2018-02-18T00:21:11.817Z,42.43
2018-02-18T00:23:39.306Z,34.67
2018-02-18T00:26:06.808Z,42.33
2018-02-18T00:28:35.069Z,34.67
2018-02-18T00:31:02.584Z,39.50
2018-02-18T00:33:30.059Z,40.07
2018-02-18T00:35:57.597Z,41.83
2018-02-18T00:38:25.080Z,41.10
2018-02-18T00:40:52.710Z,40.93
2018-02-18T00:43:20.180Z,43.53
2018-02-18T00:45:47.707Z,35.80
2018-02-18T00:48:15.191Z,30.23
2018-02-18T00:50:42.696Z,34.37
2018-02-18T00:53:10.949Z,32.73
2018-02-18T00:55:38.461Z,36.37
2018-02-18T00:58:05.931Z,43.50
2018-02-18T01:00:33.428Z,45.83
2018-02-18T01:03:00.917Z,39.63
2018-02-18T01:05:28.421Z,44.40
2018-02-18T01:07:55.909Z,40.23
2018-02-18T01:10:23.520Z,40.83
2018-02-18T01:12:51.036Z,36.73
2018-02-18T01:15:19.303Z,31.97
2018-02-18T01:17:46.779Z,40.30
2018-02-18T01:20:15.051Z,33.73
2018-02-18T01:22:43.290Z,35.13
2018-02-18T01:25:10.792Z,35.30
2018-02-18T01:27:38.258Z,36.50
2018-02-18T01:30:05.767Z,36.87
2018-02-18T01:32:33.220Z,43.40
2018-02-18T01:35:00.711Z,38.33
2018-02-18T01:37:28.955Z,37.00
2018-02-18T01:39:57.226Z,33.20
2018-02-18T01:42:24.706Z,32.30
2018-02-18T01:44:52.225Z,40.37
2018-02-18T01:47:19.782Z,40.33
2018-02-18T01:49:47.255Z,36.80
2018-02-18T01:52:14.759Z,34.13
2018-02-18T01:54:43.000Z,31.93
2018-02-18T01:57:10.497Z,32.67
2018-02-18T01:59:38.735Z,29.27
2018-02-18T02:02:07.873Z,29.87
2018-02-18T02:04:36.110Z,27.13
2018-02-18T02:07:03.613Z,29.00
2018-02-18T02:09:31.106Z,23.57
2018-02-18T02:11:58.607Z,24.80
2018-02-18T02:14:26.873Z,23.37
2018-02-18T02:16:54.387Z,25.87
2018-02-18T02:19:21.872Z,37.30
2018-02-18T02:21:49.385Z,28.77
2018-02-18T02:24:16.869Z,26.07
2018-02-18T02:26:45.232Z,26.57
2018-02-18T02:29:12.696Z,35.50
2018-02-18T02:31:40.210Z,27.07
2018-02-18T02:34:08.459Z,33.47
2018-02-18T02:36:35.970Z,27.10
2018-02-18T02:39:03.465Z,36.90
2018-02-18T02:41:31.037Z,32.37
2018-02-18T02:43:58.510Z,36.73
2018-02-18T02:46:26.027Z,27.93
2018-02-18T02:48:53.521Z,34.90
2018-02-18T02:51:20.991Z,31.03
2018-02-18T02:53:49.251Z,31.57
2018-02-18T02:56:16.730Z,30.60
2018-02-18T02:58:45.006Z,32.50
2018-02-18T03:01:13.273Z,30.97
2018-02-18T03:03:40.792Z,24.40
2018-02-18T03:06:08.252Z,26.50
2018-02-18T03:08:35.753Z,29.07
2018-02-18T03:11:04.001Z,32.03
2018-02-18T03:13:32.287Z,37.37
2018-02-18T03:15:59.748Z,31.90
2018-02-18T03:18:27.250Z,29.27
2018-02-18T03:20:54.734Z,26.90
2018-02-18T03:23:22.243Z,30.13
2018-02-18T03:25:50.471Z,23.43
2018-02-18T03:28:17.995Z,28.27
2018-02-18T03:30:45.481Z,24.27
2018-02-18T03:33:12.993Z,27.80
2018-02-18T03:35:41.228Z,30.30
2018-02-18T03:38:08.754Z,28.67
2018-02-18T03:40:36.322Z,29.53
2018-02-18T03:43:03.815Z,26.37
2018-02-18T03:45:31.292Z,26.50
2018-02-18T03:47:59.556Z,24.33
2018-02-18T03:50:27.040Z,26.63
2018-02-18T03:52:55.315Z,23.63
2018-02-18T03:55:23.546Z,21.43
2018-02-18T03:57:51.058Z,34.83
2018-02-18T04:00:18.540Z,27.67
2018-02-18T04:02:46.047Z,33.53
2018-02-18T04:05:13.529Z,30.90
2018-02-18T04:07:41.037Z,33.80
2018-02-18T04:10:08.511Z,34.00
2018-02-18T04:12:36.017Z,31.67
2018-02-18T04:15:03.483Z,26.23
2018-02-18T04:17:30.988Z,27.53
2018-02-18T04:19:58.480Z,27.93
2018-02-18T04:22:25.961Z,25.20
2018-02-18T04:24:53.489Z,25.23
2018-02-18T04:27:21.743Z,22.47
2018-02-18T04:29:49.271Z,22.27
2018-02-18T04:32:16.762Z,24.97
2018-02-18T04:34:44.263Z,25.00
2018-02-18T04:37:11.755Z,22.60
2018-02-18T04:39:39.296Z,24.63
2018-02-18T04:42:06.757Z,23.10
2018-02-18T04:44:34.265Z,19.30
2018-02-18T04:47:02.491Z,25.03
2018-02-18T04:49:29.995Z,20.37
2018-02-18T04:51:58.238Z,21.03
2018-02-18T04:54:25.745Z,22.57
2018-02-18T04:56:53.226Z,21.33
2018-02-18T04:59:20.718Z,22.17
2018-02-18T05:01:48.231Z,20.30
2018-02-18T05:04:15.722Z,19.60
2018-02-18T05:06:43.192Z,19.70
2018-02-18T05:09:10.709Z,21.00
2018-02-18T05:11:38.184Z,21.53
2018-02-18T05:14:05.693Z,26.97
2018-02-18T05:16:33.998Z,30.10
2018-02-18T05:19:01.502Z,26.97
2018-02-18T05:21:29.015Z,26.03
2018-02-18T05:23:56.521Z,27.57
2018-02-18T05:26:24.266Z,22.90
2018-02-18T05:28:51.775Z,22.83
2018-02-18T05:31:20.073Z,23.07
2018-02-18T05:33:47.586Z,27.27
2018-02-18T05:36:15.083Z,26.67
2018-02-18T05:38:42.811Z,24.13
2018-02-18T05:41:10.292Z,31.10
2018-02-18T05:43:38.555Z,27.70
2018-02-18T05:46:06.863Z,24.83
2018-02-18T05:48:34.340Z,24.40
2018-02-18T05:51:01.868Z,21.20
2018-02-18T05:53:29.364Z,22.87
2018-02-18T05:55:56.852Z,26.90
2018-02-18T05:58:25.141Z,27.23
2018-02-18T06:00:53.367Z,28.90
2018-02-18T06:03:20.876Z,21.47
2018-02-18T06:05:49.126Z,21.80
2018-02-18T06:08:16.739Z,29.77
2018-02-18T06:10:44.232Z,27.97
2018-02-18T06:13:11.711Z,22.57
2018-02-18T06:15:39.238Z,21.43
2018-02-18T06:18:06.747Z,21.13
2018-02-18T06:20:34.988Z,19.83
2018-02-18T06:23:02.492Z,19.47
2018-02-18T06:25:29.975Z,22.53
2018-02-18T06:27:57.581Z,20.13
2018-02-18T06:30:25.068Z,27.00
2018-02-18T06:32:52.562Z,24.77
2018-02-18T06:35:20.103Z,21.10
2018-02-18T06:37:47.619Z,28.90
2018-02-18T06:40:15.860Z,25.03
2018-02-18T06:42:43.341Z,25.90
2018-02-18T06:45:11.163Z,22.03
2018-02-18T06:47:38.642Z,20.30
2018-02-18T06:50:06.156Z,25.10
2018-02-18T06:52:33.759Z,19.93
2018-02-18T06:55:01.294Z,21.10
2018-02-18T06:57:28.781Z,20.53
2018-02-18T06:59:56.271Z,21.83
2018-02-18T07:02:24.512Z,23.70
2018-02-18T07:04:52.040Z,22.20
2018-02-18T07:07:19.580Z,24.70
2018-02-18T07:09:47.803Z,22.07
2018-02-18T07:12:15.278Z,27.53
2018-02-18T07:14:42.790Z,27.20
2018-02-18T07:17:10.280Z,27.97
2018-02-18T07:19:37.783Z,26.50
2018-02-18T07:22:06.031Z,24.67
2018-02-18T07:24:33.545Z,28.20
2018-02-18T07:27:01.041Z,29.67
2018-02-18T07:29:28.532Z,30.77
2018-02-18T07:31:56.832Z,35.23
2018-02-18T07:34:24.311Z,30.23
2018-02-18T07:36:51.775Z,31.63
2018-02-18T07:39:20.478Z,30.47
2018-02-18T07:41:47.944Z,29.70
2018-02-18T07:44:15.448Z,28.57
2018-02-18T07:46:42.940Z,28.80
2018-02-18T07:49:10.436Z,26.20
2018-02-18T07:51:38.740Z,31.67
2018-02-18T07:54:06.249Z,27.83
2018-02-18T07:56:33.727Z,34.43
2018-02-18T07:59:02.033Z,31.53
2018-02-18T08:01:29.560Z,32.50
2018-02-18T08:03:57.813Z,32.83
2018-02-18T08:06:25.342Z,31.53
2018-02-18T08:08:52.889Z,29.23
2018-02-18T08:11:20.397Z,29.00
2018-02-18T08:13:47.907Z,38.50
2018-02-18T08:16:15.368Z,34.07
2018-02-18T08:18:42.903Z,32.87
2018-02-18T08:21:10.388Z,34.27
2018-02-18T08:23:37.898Z,35.50
2018-02-18T08:26:06.185Z,34.30
2018-02-18T08:28:34.475Z,36.97
2018-02-18T08:31:01.952Z,35.47
2018-02-18T08:33:29.467Z,37.17
2018-02-18T08:35:57.728Z,37.93
2018-02-18T08:38:25.238Z,35.43
2018-02-18T08:40:52.733Z,32.27
2018-02-18T08:43:20.235Z,33.17
2018-02-18T08:45:47.704Z,30.87
2018-02-18T08:48:15.208Z,39.63
2018-02-18T08:50:42.730Z,39.60
2018-02-18T08:53:10.216Z,32.10
2018-02-18T08:55:37.725Z,42.47
2018-02-18T08:58:06.114Z,34.80
2018-02-18T09:00:33.604Z,31.20
2018-02-18T09:03:01.411Z,39.53
2018-02-18T09:05:29.819Z,36.43
2018-02-18T09:07:57.387Z,42.17
2018-02-18T09:10:24.875Z,28.87
2018-02-18T09:12:53.052Z,27.97
2018-02-18T09:15:20.628Z,27.30
2018-02-18T09:17:48.440Z,27.97
2018-02-18T09:20:15.928Z,28.43
2018-02-18T09:22:43.455Z,31.23
2018-02-18T09:25:11.700Z,32.03
2018-02-18T09:27:39.996Z,28.23
2018-02-18T09:30:07.475Z,26.77
2018-02-18T09:32:34.936Z,26.17
2018-02-18T09:35:02.461Z,24.87
2018-02-18T09:37:30.702Z,22.70
2018-02-18T09:39:58.794Z,23.40
2018-02-18T09:42:26.302Z,23.97
2018-02-18T09:44:53.862Z,23.40
2018-02-18T09:47:21.482Z,24.50
2018-02-18T09:49:49.736Z,23.20
2018-02-18T09:52:17.224Z,24.50
2018-02-18T09:54:45.481Z,24.20
2018-02-18T09:57:12.972Z,23.17
2018-02-18T09:59:40.463Z,24.07
2018-02-18T10:02:07.945Z,24.23
2018-02-18T10:04:35.476Z,23.90
2018-02-18T10:07:02.993Z,22.47
2018-02-18T10:09:30.843Z,23.30
2018-02-18T10:11:59.124Z,24.23
2018-02-18T10:14:26.674Z,24.43
2018-02-18T10:16:54.136Z,21.70
2018-02-18T10:19:22.416Z,22.67
2018-02-18T10:21:50.713Z,23.33
2018-02-18T10:24:18.233Z,22.10
2018-02-18T10:26:45.767Z,23.93
2018-02-18T10:29:13.581Z,23.67
2018-02-18T10:31:41.068Z,24.23
2018-02-18T10:34:08.568Z,24.23
2018-02-18T10:36:36.117Z,22.57
2018-02-18T10:39:03.611Z,22.70
2018-02-18T10:41:31.111Z,22.47
2018-02-18T10:43:58.652Z,21.93
2018-02-18T10:46:26.151Z,23.53
2018-02-18T10:48:53.652Z,22.70
2018-02-18T10:51:21.204Z,23.07
2018-02-18T10:53:49.464Z,21.77
2018-02-18T10:56:17.304Z,24.00
2018-02-18T10:58:44.798Z,20.90
2018-02-18T11:01:13.091Z,22.63
2018-02-18T11:03:40.589Z,21.10
2018-02-18T11:06:08.133Z,21.87
2018-02-18T11:08:35.595Z,20.67
2018-02-18T11:11:03.096Z,20.00
2018-02-18T11:13:30.579Z,20.23
2018-02-18T11:15:58.844Z,19.43
2018-02-18T11:18:27.110Z,17.33
2018-02-18T11:20:55.416Z,18.23
2018-02-18T11:23:22.965Z,17.87
2018-02-18T11:25:50.972Z,18.80
2018-02-18T11:28:18.527Z,18.13
2018-02-18T11:30:46.033Z,18.23
2018-02-18T11:33:13.554Z,18.85
2018-02-18T11:35:41.033Z,16.67
2018-02-18T11:38:08.552Z,18.83
2018-02-18T11:40:36.047Z,17.83
2018-02-18T11:43:03.552Z,17.07
2018-02-18T11:45:31.057Z,16.53
2018-02-18T11:47:58.567Z,16.40
2018-02-18T11:50:26.041Z,17.07
2018-02-18T11:52:53.573Z,16.80
2018-02-18T11:55:21.810Z,16.80
2018-02-18T11:57:49.293Z,15.90
2018-02-18T12:00:16.809Z,17.07
2018-02-18T12:02:44.283Z,18.03
2018-02-18T12:05:11.838Z,16.30
2018-02-18T12:07:39.420Z,18.67
2018-02-18T12:10:06.939Z,15.87
2018-02-18T12:12:34.434Z,17.17
2018-02-18T12:15:01.938Z,18.87
2018-02-18T12:17:29.446Z,16.43
2018-02-18T12:19:56.934Z,17.17
2018-02-18T12:22:25.252Z,16.90
2018-02-18T12:24:52.701Z,15.97
2018-02-18T12:27:20.233Z,17.23
2018-02-18T12:29:47.741Z,15.50
2018-02-18T12:32:15.269Z,15.90
2018-02-18T12:34:42.788Z,15.17
2018-02-18T12:37:11.059Z,14.97
2018-02-18T12:39:38.550Z,15.10
2018-02-18T12:42:06.087Z,14.60
2018-02-18T12:44:34.371Z,14.40
2018-02-18T12:47:02.632Z,14.93
2018-02-18T12:49:30.875Z,15.20
2018-02-18T12:51:58.366Z,13.80
2018-02-18T12:54:26.639Z,14.70
2018-02-18T12:56:54.990Z,14.23
2018-02-18T12:59:22.460Z,14.50
2018-02-18T13:01:49.950Z,15.43
2018-02-18T13:04:18.252Z,15.03
2018-02-18T13:06:45.733Z,14.57
2018-02-18T13:09:13.245Z,14.63
2018-02-18T13:11:40.747Z,17.07
2018-02-18T13:14:08.244Z,17.40
2018-02-18T13:16:36.496Z,18.03
2018-02-18T13:19:04.012Z,17.90
2018-02-18T13:21:31.496Z,19.50
2018-02-18T13:23:59.023Z,18.90
2018-02-18T13:26:26.517Z,19.23
2018-02-18T13:28:54.062Z,17.17
2018-02-18T13:31:21.526Z,18.50
2018-02-18T13:33:49.025Z,17.73
2018-02-18T13:36:17.273Z,16.53
2018-02-18T13:38:45.615Z,18.40
2018-02-18T13:41:13.080Z,18.23
2018-02-18T13:43:40.584Z,16.27
2018-02-18T13:46:08.071Z,16.80
2018-02-18T13:48:36.348Z,18.13
2018-02-18T13:51:04.611Z,17.20
2018-02-18T13:53:32.141Z,16.87
2018-02-18T13:55:59.619Z,17.23
2018-02-18T13:58:27.927Z,14.27
2018-02-18T14:00:56.192Z,15.30
2018-02-18T14:03:24.490Z,15.30
2018-02-18T14:05:51.968Z,16.30
2018-02-18T14:08:20.064Z,16.80
2018-02-18T14:10:47.585Z,17.60
2018-02-18T14:13:15.073Z,15.37
2018-02-18T14:15:42.637Z,16.37
2018-02-18T14:18:10.140Z,18.97
2018-02-18T14:20:37.649Z,17.20
2018-02-18T14:23:05.171Z,16.97
2018-02-18T14:25:32.715Z,17.33
2018-02-18T14:28:00.220Z,16.23
2018-02-18T14:30:27.742Z,16.97
2018-02-18T14:32:55.242Z,17.00
2018-02-18T14:35:22.763Z,16.93
2018-02-18T14:37:50.498Z,15.13
2018-02-18T14:40:18.783Z,16.40
2018-02-18T14:42:59.079Z,16.23
2018-02-18T14:45:38.493Z,15.87
2018-02-18T14:48:18.573Z,14.90
2018-02-18T14:50:58.016Z,14.43
2018-02-18T14:53:37.240Z,15.23
2018-02-18T14:56:31.482Z,15.20
2018-02-18T14:58:59.751Z,16.07
2018-02-18T15:01:28.031Z,15.87
2018-02-18T15:03:56.657Z,16.40
2018-02-18T15:06:24.169Z,16.60
2018-02-18T15:08:52.656Z,16.57
2018-02-18T15:11:20.957Z,15.23
2018-02-18T15:13:48.464Z,18.13
2018-02-18T15:16:16.686Z,15.57
2018-02-18T15:18:44.219Z,15.17
2018-02-18T15:21:12.506Z,16.47
2018-02-18T15:23:40.790Z,15.60
2018-02-18T15:26:08.267Z,14.97
2018-02-18T15:28:35.776Z,14.70
2018-02-18T15:31:03.300Z,16.13
2018-02-18T15:33:30.814Z,16.83
2018-02-18T15:35:59.046Z,17.63
2018-02-18T15:38:26.606Z,18.03
2018-02-18T15:40:54.078Z,15.43
2018-02-18T15:43:21.571Z,15.70
2018-02-18T15:45:49.069Z,14.63
2018-02-18T15:48:16.590Z,14.17
2018-02-18T15:50:44.084Z,14.50
2018-02-18T15:53:11.592Z,14.30
2018-02-18T15:55:39.885Z,14.40
2018-02-18T15:58:07.351Z,15.20
2018-02-18T16:00:34.876Z,14.03
2018-02-18T16:03:03.150Z,15.67
2018-02-18T16:05:31.433Z,17.17
2018-02-18T16:07:58.944Z,16.10
2018-02-18T16:10:26.461Z,14.37
2018-02-18T16:12:53.945Z,14.83
2018-02-18T16:15:21.458Z,15.33
2018-02-18T16:17:49.776Z,15.27
2018-02-18T16:20:17.301Z,14.73
2018-02-18T16:22:44.763Z,14.83
2018-02-18T16:25:13.085Z,15.73
2018-02-18T16:27:40.604Z,14.83
2018-02-18T16:30:08.860Z,15.20
2018-02-18T16:32:37.162Z,16.40
2018-02-18T16:35:04.640Z,18.53
2018-02-18T16:37:32.139Z,20.57
2018-02-18T16:39:59.616Z,16.77
2018-02-18T16:42:27.920Z,17.47
2018-02-18T16:44:55.413Z,16.80
2018-02-18T16:47:22.918Z,16.93
2018-02-18T16:49:51.176Z,17.97
2018-02-18T16:52:18.688Z,16.20
2018-02-18T16:54:46.554Z,19.27
2018-02-18T16:57:14.078Z,18.30
2018-02-18T16:59:42.342Z,18.63
2018-02-18T17:02:10.614Z,18.47
2018-02-18T17:04:38.108Z,19.87
2018-02-18T17:07:05.630Z,18.57
2018-02-18T17:09:33.108Z,19.40
2018-02-18T17:12:00.612Z,21.63
2018-02-18T17:14:28.113Z,23.90
2018-02-18T17:16:56.390Z,25.57
2018-02-18T17:19:24.612Z,25.80
2018-02-18T17:21:52.090Z,23.23
2018-02-18T17:24:19.581Z,27.00
2018-02-18T17:26:47.828Z,23.30
2018-02-18T17:29:15.330Z,22.73
2018-02-18T17:31:42.816Z,21.13
2018-02-18T17:34:10.333Z,21.27
2018-02-18T17:36:38.563Z,18.40
2018-02-18T17:39:06.076Z,17.77
2018-02-18T17:41:34.321Z,17.60
2018-02-18T17:44:01.886Z,19.50
2018-02-18T17:46:29.323Z,15.33
2018-02-18T17:48:56.833Z,15.83
2018-02-18T17:51:24.319Z,18.50
2018-02-18T17:53:51.871Z,17.20
2018-02-18T17:56:19.422Z,24.27
2018-02-18T17:58:46.945Z,28.50
2018-02-18T18:01:15.218Z,27.83
2018-02-18T18:03:43.512Z,22.30
2018-02-18T18:06:11.750Z,20.30
2018-02-18T18:08:39.282Z,20.20
2018-02-18T18:11:06.757Z,22.27
2018-02-18T18:13:34.284Z,24.77
2018-02-18T18:16:01.781Z,23.33
2018-02-18T18:18:29.291Z,23.87
2018-02-18T18:20:57.381Z,24.17
2018-02-18T18:23:24.891Z,26.47
2018-02-18T18:25:52.356Z,23.67
2018-02-18T18:28:20.621Z,37.33
2018-02-18T18:30:48.878Z,40.03
2018-02-18T18:33:16.479Z,36.23
2018-02-18T18:35:44.759Z,30.60
2018-02-18T18:38:12.277Z,29.47
2018-02-18T18:40:39.811Z,30.57
2018-02-18T18:43:07.290Z,27.50
2018-02-18T18:45:35.701Z,28.90
2018-02-18T18:48:03.954Z,25.17
2018-02-18T18:50:31.454Z,26.93
2018-02-18T18:52:58.946Z,26.60
2018-02-18T18:55:26.451Z,24.67
2018-02-18T18:57:54.705Z,23.67
2018-02-18T19:00:22.207Z,24.47
2018-02-18T19:02:49.714Z,25.03
2018-02-18T19:05:17.237Z,30.97
2018-02-18T19:07:44.768Z,32.07
2018-02-18T19:10:12.282Z,67.73
2018-02-18T19:12:39.763Z,73.20
2018-02-18T19:15:07.272Z,58.47
2018-02-18T19:17:34.765Z,53.33
2018-02-18T19:20:02.266Z,53.17
2018-02-18T19:22:29.753Z,46.90
2018-02-18T19:24:57.277Z,43.13
2018-02-18T19:27:24.764Z,43.53
2018-02-18T19:29:52.275Z,43.07
2018-02-18T19:32:20.529Z,36.40
2018-02-18T19:34:48.051Z,38.87
2018-02-18T19:37:15.686Z,38.27
2018-02-18T19:39:43.445Z,42.60
2018-02-18T19:42:10.966Z,38.50
2018-02-18T19:44:38.587Z,37.00
2018-02-18T19:47:06.146Z,36.63
2018-02-18T19:49:33.621Z,35.70
2018-02-18T19:52:01.149Z,30.90
2018-02-18T19:54:28.737Z,33.27
2018-02-18T19:56:56.277Z,32.17
2018-02-18T19:59:23.766Z,32.37
2018-02-18T20:01:51.277Z,30.30
2018-02-18T20:04:19.519Z,27.37
2018-02-18T20:06:47.045Z,27.80
2018-02-18T20:09:14.544Z,26.47
2018-02-18T20:11:42.051Z,27.87
2018-02-18T20:14:09.540Z,27.43
2018-02-18T20:16:37.059Z,28.20
2018-02-18T20:19:05.381Z,27.57
2018-02-18T20:21:32.904Z,29.70
2018-02-18T20:24:01.138Z,30.93
2018-02-18T20:26:28.759Z,29.23
2018-02-18T20:28:56.228Z,26.07
2018-02-18T20:31:23.721Z,26.50
2018-02-18T20:33:52.010Z,25.30
2018-02-18T20:36:19.589Z,24.30
2018-02-18T20:38:47.076Z,24.40
2018-02-18T20:41:14.697Z,27.80
2018-02-18T20:43:42.192Z,21.60
2018-02-18T20:46:09.681Z,27.40
2018-02-18T20:48:37.211Z,32.13
2018-02-18T20:51:04.672Z,27.87
2018-02-18T20:53:32.206Z,24.53
2018-02-18T20:56:00.723Z,26.30
2018-02-18T20:58:28.320Z,26.20
2018-02-18T21:00:55.802Z,28.77
2018-02-18T21:03:23.319Z,25.80
2018-02-18T21:05:51.574Z,26.47
2018-02-18T21:08:19.839Z,28.67
2018-02-18T21:10:47.341Z,28.67
2018-02-18T21:13:14.878Z,28.63
2018-02-18T21:15:42.378Z,26.57
2018-02-18T21:18:09.912Z,27.90
2018-02-18T21:20:38.167Z,29.33
2018-02-18T21:23:05.661Z,28.50
2018-02-18T21:25:33.164Z,26.00
2018-02-18T21:28:00.652Z,23.17
2018-02-18T21:30:28.189Z,24.70
2018-02-18T21:32:55.712Z,27.67
2018-02-18T21:35:23.218Z,24.47
2018-02-18T21:37:50.726Z,30.90
2018-02-18T21:40:18.232Z,29.47
2018-02-18T21:42:45.714Z,32.73
2018-02-18T21:45:13.980Z,36.00
2018-02-18T21:47:42.249Z,30.23
2018-02-18T21:50:09.936Z,28.27
2018-02-18T21:52:38.212Z,26.13
2018-02-18T21:55:06.455Z,27.70
2018-02-18T21:57:33.986Z,26.57
2018-02-18T22:00:01.508Z,25.83
2018-02-18T22:02:29.025Z,23.27
2018-02-18T22:04:56.493Z,25.73
2018-02-18T22:07:23.990Z,27.03
2018-02-18T22:09:51.528Z,26.90
2018-02-18T22:12:19.023Z,26.57
2018-02-18T22:14:46.517Z,24.43
2018-02-18T22:17:14.022Z,24.40
2018-02-18T22:19:41.521Z,24.73
2018-02-18T22:22:09.029Z,23.07
2018-02-18T22:24:37.288Z,21.87
2018-02-18T22:27:05.569Z,23.67
2018-02-18T22:29:33.823Z,21.60
2018-02-18T22:32:01.326Z,21.80
2018-02-18T22:34:28.849Z,23.87
2018-02-18T22:36:56.319Z,20.17
2018-02-18T22:39:23.852Z,21.57
2018-02-18T22:41:51.340Z,22.20
2018-02-18T22:44:19.605Z,21.10
2018-02-18T22:46:47.115Z,22.20
2018-02-18T22:49:15.395Z,23.17
2018-02-18T22:51:42.881Z,23.17
2018-02-18T22:54:10.372Z,24.53
2018-02-18T22:56:38.628Z,23.90
2018-02-18T22:59:06.924Z,22.90
2018-02-18T23:01:35.171Z,21.47
2018-02-18T23:04:02.713Z,22.07
2018-02-18T23:06:30.936Z,22.13
2018-02-18T23:08:58.439Z,18.60
2018-02-18T23:11:25.911Z,21.97
2018-02-18T23:13:53.451Z,21.43
2018-02-18T23:16:20.935Z,23.20
2018-02-18T23:18:48.443Z,25.07
2018-02-18T23:21:15.917Z,21.30
2018-02-18T23:23:43.437Z,25.17
2018-02-18T23:26:11.691Z,24.47
2018-02-18T23:28:39.213Z,24.70
2018-02-18T23:31:06.679Z,25.23
2018-02-18T23:33:34.175Z,24.20
2018-02-18T23:36:02.441Z,24.20
2018-02-18T23:38:29.977Z,24.13
2018-02-18T23:40:57.468Z,23.13
2018-02-18T23:43:25.740Z,23.90
2018-02-18T23:45:53.218Z,24.27
2018-02-18T23:48:21.486Z,23.33
2018-02-18T23:50:49.767Z,22.17
2018-02-18T23:53:18.056Z,22.40
2018-02-18T23:55:46.293Z,22.27
2018-02-18T23:58:13.807Z,21.57
